Time;durP1;ratioP1;P1;durP2;ratioP2;P2;SDS_P1;SDS_P2;PMS_P1;PMS_P2;Temp;Humidity;BMP_temperature;BMP_pressure;BME280_temperature;BME280_humidity;BME280_pressure;Samples;Min_cycle;Max_cycle;Signal;HPM_P1;HPM_P2
2019/04/12 00:00:05;;;;;;;38.5;25.8;;;;;;;6.02;55.95703;962.8182;;;;
2019/04/12 00:02:32;;;;;;;32.4;23.8;;;;;;;5.75;55.40723;962.8898;;;;
2019/04/12 00:04:55;;;;;;;31.7;23.7;;;;;;;5.65;55.72461;962.8483;;;;
2019/04/12 00:07:20;;;;;;;36.1;24.5;;;;;;;5.53;56.47754;962.8295;;;;
2019/04/12 00:09:45;;;;;;;32.3;23.1;;;;;;;5.57;56.34473;962.8979;;;;
2019/04/12 00:12:10;;;;;;;30.6;22.1;;;;;;;5.43;56.38379;962.8511;;;;
2019/04/12 00:14:35;;;;;;;33.6;23;;;;;;;5.34;56.34863;962.8047;;;;
2019/04/12 00:17:00;;;;;;;31.6;22;;;;;;;5.35;56.23438;962.7874;;;;
2019/04/12 00:19:26;;;;;;;31.7;22.2;;;;;;;5.3;56.35547;962.8044;;;;
2019/04/12 00:21:51;;;;;;;29.8;21.5;;;;;;;5.31;56.7666;962.8328;;;;
2019/04/12 00:24:17;;;;;;;30.8;22;;;;;;;5.28;56.92285;962.7891;;;;
2019/04/12 00:26:41;;;;;;;29.2;20.9;;;;;;;5.14;56.57227;962.7981;;;;
2019/04/12 00:29:06;;;;;;;27.9;20.9;;;;;;;5.19;56.86523;962.7975;;;;
2019/04/12 00:31:31;;;;;;;31.7;21.2;;;;;;;5.04;56.98242;962.8192;;;;
2019/04/12 00:33:57;;;;;;;25.8;20.1;;;;;;;5.05;57.04199;962.8351;;;;
2019/04/12 00:36:22;;;;;;;26.8;20.5;;;;;;;5;57.04492;962.8613;;;;
2019/04/12 00:38:47;;;;;;;26.4;20.1;;;;;;;4.86;56.75293;962.8101;;;;
2019/04/12 00:41:12;;;;;;;25.6;19.5;;;;;;;4.93;56.44141;962.8469;;;;
2019/04/12 00:43:37;;;;;;;27.5;19;;;;;;;4.81;57.29492;962.823;;;;
2019/04/12 00:46:03;;;;;;;27.9;19.9;;;;;;;4.67;58.03906;962.8192;;;;
2019/04/12 00:48:28;;;;;;;26.7;18.7;;;;;;;4.68;57.3916;962.8052;;;;
2019/04/12 00:50:53;;;;;;;27.5;19.4;;;;;;;4.66;57.33008;962.7778;;;;
2019/04/12 00:53:18;;;;;;;27.3;18.6;;;;;;;4.5;57.68652;962.7619;;;;
2019/04/12 00:55:43;;;;;;;26.2;19.2;;;;;;;4.37;58.15918;962.7781;;;;
2019/04/12 00:58:08;;;;;;;26.9;19.5;;;;;;;4.33;58.2666;962.7726;;;;
2019/04/12 01:00:50;;;;;;;24.8;18.4;;;;;;;4.3;58.87891;962.7286;;;;
2019/04/12 01:03:04;;;;;;;26.2;19.4;;;;;;;4.29;59.26563;962.7086;;;;
2019/04/12 01:05:26;;;;;;;28.1;18.5;;;;;;;4.27;59.3418;962.7068;;;;
2019/04/12 01:08:09;;;;;;;24.3;18.5;;;;;;;4.2;59.19629;962.7166;;;;
2019/04/12 01:10:15;;;;;;;24.4;18.1;;;;;;;4.06;59.58594;962.6825;;;;
2019/04/12 01:12:40;;;;;;;26.7;19.2;;;;;;;4.02;60.02441;962.7286;;;;
2019/04/12 01:15:05;;;;;;;23.3;17.6;;;;;;;4.17;59.32813;962.6898;;;;
2019/04/12 01:17:31;;;;;;;23.1;17.8;;;;;;;4.17;59.71484;962.7192;;;;
2019/04/12 01:19:56;;;;;;;24.9;17.7;;;;;;;4.3;58.74219;962.8387;;;;
2019/04/12 01:22:21;;;;;;;24.4;17.8;;;;;;;4.32;58.54004;962.7861;;;;
2019/04/12 01:24:47;;;;;;;25.7;16.8;;;;;;;4.3;58.62793;962.788;;;;
2019/04/12 01:27:12;;;;;;;21.7;16.9;;;;;;;4.15;58.48145;962.7508;;;;
2019/04/12 01:29:38;;;;;;;23.7;17.1;;;;;;;4.01;58.95215;962.7839;;;;
2019/04/12 01:32:03;;;;;;;22.7;16.4;;;;;;;3.92;59.32813;962.8122;;;;
2019/04/12 01:34:28;;;;;;;21.3;15.9;;;;;;;3.8;59.92578;962.789;;;;
2019/04/12 01:36:55;;;;;;;22.5;16.3;;;;;;;3.69;60.04785;962.7645;;;;
2019/04/12 01:39:20;;;;;;;23.5;16.5;;;;;;;3.77;59.84277;962.7875;;;;
2019/04/12 01:41:45;;;;;;;22.6;16.6;;;;;;;3.78;59.82129;962.8162;;;;
2019/04/12 01:44:10;;;;;;;20.4;16;;;;;;;3.71;59.83203;962.7972;;;;
2019/04/12 01:46:35;;;;;;;19.9;16.1;;;;;;;3.68;60.40918;962.8253;;;;
2019/04/12 01:49:00;;;;;;;22.9;16.2;;;;;;;3.5;60.58887;962.8613;;;;
2019/04/12 01:51:25;;;;;;;21.5;15.7;;;;;;;3.48;60.4043;962.8499;;;;
2019/04/12 01:53:51;;;;;;;20.1;15;;;;;;;3.4;61.28027;962.8655;;;;
2019/04/12 01:56:16;;;;;;;21;15.7;;;;;;;3.41;61.22363;962.8689;;;;
2019/04/12 01:58:41;;;;;;;21;15.4;;;;;;;3.36;61.00195;962.7714;;;;
2019/04/12 02:01:07;;;;;;;22;15.5;;;;;;;3.42;61.15918;962.7918;;;;
2019/04/12 02:03:32;;;;;;;21;15;;;;;;;3.32;61.13281;962.6949;;;;
2019/04/12 02:05:57;;;;;;;19.8;15.5;;;;;;;3.19;61.62598;962.697;;;;
2019/04/12 02:08:22;;;;;;;19.4;15;;;;;;;3.27;61;962.6526;;;;
2019/04/12 02:10:47;;;;;;;19;14.5;;;;;;;3.18;61.23828;962.7402;;;;
2019/04/12 02:13:12;;;;;;;22.5;14.9;;;;;;;3.05;61.51465;962.8141;;;;
2019/04/12 02:15:37;;;;;;;19.5;15.5;;;;;;;2.96;62.08105;962.712;;;;
2019/04/12 02:18:02;;;;;;;20.5;14.8;;;;;;;3.01;62.09961;962.7672;;;;
2019/04/12 02:20:28;;;;;;;21.3;15;;;;;;;3.02;61.62305;962.6735;;;;
2019/04/12 02:22:53;;;;;;;20.1;15.1;;;;;;;2.99;61.82422;962.7394;;;;
2019/04/12 02:25:18;;;;;;;19.5;14.6;;;;;;;2.99;61.66602;962.7222;;;;
2019/04/12 02:27:43;;;;;;;18.8;14.9;;;;;;;3.02;61.48828;962.6563;;;;
2019/04/12 02:30:11;;;;;;;18.7;14.9;;;;;;;3.08;61.41602;962.6813;;;;
2019/04/12 02:32:48;;;;;;;22.4;15.1;;;;;;;2.86;61.7832;962.796;;;;
2019/04/12 02:34:59;;;;;;;18.6;14.6;;;;;;;2.9;61.87891;962.6916;;;;
2019/04/12 02:37:26;;;;;;;21.3;14.9;;;;;;;2.84;62.14258;962.7558;;;;
2019/04/12 02:39:51;;;;;;;19.5;15;;;;;;;2.87;61.93164;962.7494;;;;
2019/04/12 02:42:16;;;;;;;19.5;14.7;;;;;;;2.99;61.55078;962.7561;;;;
2019/04/12 02:44:42;;;;;;;19.1;14.5;;;;;;;3.01;61.51953;962.7419;;;;
2019/04/12 02:47:19;;;;;;;19.2;14.1;;;;;;;2.9;61.83398;962.7168;;;;
2019/04/12 02:49:41;;;;;;;21.4;14.6;;;;;;;2.84;61.94922;962.8024;;;;
2019/04/12 02:52:12;;;;;;;20.2;14.8;;;;;;;2.65;62.70605;962.7587;;;;
2019/04/12 02:59:17;;;;;;;19.8;14.6;;;;;;;2.62;62.52051;962.7186;;;;
2019/04/12 03:01:38;;;;;;;20.9;14.1;;;;;;;2.68;62.51758;962.764;;;;
2019/04/12 03:04:04;;;;;;;20;15.1;;;;;;;2.6;62.70898;962.7123;;;;
2019/04/12 03:06:29;;;;;;;18.8;14.1;;;;;;;2.68;62.48438;962.7515;;;;
2019/04/12 03:08:54;;;;;;;18.1;14.6;;;;;;;2.8;61.9668;962.6997;;;;
2019/04/12 03:11:19;;;;;;;20.9;14.4;;;;;;;2.71;61.85156;962.6945;;;;
2019/04/12 03:13:44;;;;;;;19.3;14.6;;;;;;;2.65;62.18359;962.6703;;;;
2019/04/12 03:16:09;;;;;;;18.2;14;;;;;;;2.62;62.71289;962.6894;;;;
2019/04/12 03:18:44;;;;;;;19.5;14.4;;;;;;;2.64;62.61328;962.772;;;;
2019/04/12 03:21:10;;;;;;;19.7;15.2;;;;;;;2.65;62.33203;962.7665;;;;
2019/04/12 03:23:35;;;;;;;20;14.2;;;;;;;2.61;62.29004;962.7112;;;;
2019/04/12 03:26:00;;;;;;;17.1;14.4;;;;;;;2.53;62.83594;962.7175;;;;
2019/04/12 03:28:25;;;;;;;19.1;14.2;;;;;;;2.44;62.93652;962.7498;;;;
2019/04/12 03:30:51;;;;;;;17.9;14;;;;;;;2.52;63.07324;962.7394;;;;
2019/04/12 03:33:17;;;;;;;22;14.2;;;;;;;2.51;63.19531;962.7319;;;;
2019/04/12 03:35:41;;;;;;;19.1;14.2;;;;;;;2.51;62.77539;962.7151;;;;
2019/04/12 03:38:07;;;;;;;19.5;14.1;;;;;;;2.52;63.19824;962.6848;;;;
2019/04/12 03:40:34;;;;;;;20.4;14.6;;;;;;;2.6;63.1084;962.7457;;;;
2019/04/12 03:42:59;;;;;;;17;12.8;;;;;;;2.7;62.32715;962.733;;;;
2019/04/12 03:45:24;;;;;;;19.1;13.6;;;;;;;2.65;62.5791;962.7548;;;;
2019/04/12 03:47:49;;;;;;;19.2;14.2;;;;;;;2.64;63.0791;962.7467;;;;
2019/04/12 03:50:15;;;;;;;21.4;14.5;;;;;;;2.63;62.70215;962.7227;;;;
2019/04/12 03:52:41;;;;;;;18.3;14.3;;;;;;;2.73;62.71777;962.7944;;;;
2019/04/12 03:55:07;;;;;;;21.5;14.2;;;;;;;2.61;62.38086;962.8289;;;;
2019/04/12 03:57:31;;;;;;;19;14.2;;;;;;;2.53;63.05078;962.8065;;;;
2019/04/12 03:59:56;;;;;;;17.7;14.5;;;;;;;2.66;62.60449;962.7452;;;;
2019/04/12 04:02:28;;;;;;;17.7;13.7;;;;;;;2.77;62.39355;962.7274;;;;
2019/04/12 04:04:52;;;;;;;20.2;14.1;;;;;;;2.71;62.24902;962.7617;;;;
2019/04/12 04:07:17;;;;;;;19;14.2;;;;;;;2.61;62.99414;962.7032;;;;
2019/04/12 04:11:16;;;;;;;18.1;14.2;;;;;;;2.63;62.30469;962.7439;;;;
2019/04/12 04:13:41;;;;;;;17.7;13.1;;;;;;;2.6;62.17578;962.7037;;;;
2019/04/12 04:16:07;;;;;;;18.6;13.6;;;;;;;2.63;62.29395;962.7852;;;;
2019/04/12 04:18:31;;;;;;;17.7;14.1;;;;;;;2.67;62.75391;962.8072;;;;
2019/04/12 04:25:53;;;;;;;17.7;13.5;;;;;;;2.72;62.96582;962.803;;;;
2019/04/12 04:28:20;;;;;;;19.4;13.7;;;;;;;2.84;61.46191;962.8356;;;;
2019/04/12 04:30:47;;;;;;;18.5;14.1;;;;;;;2.84;61.67773;962.7639;;;;
2019/04/12 04:33:04;;;;;;;18.8;13.7;;;;;;;2.84;62.00781;962.8231;;;;
2019/04/12 04:35:27;;;;;;;17.6;14;;;;;;;2.72;62.11328;962.8036;;;;
2019/04/12 04:38:13;;;;;;;19.2;14.2;;;;;;;2.72;61.9209;962.8369;;;;
2019/04/12 04:40:18;;;;;;;20.3;14.3;;;;;;;2.77;62.17773;962.8167;;;;
2019/04/12 04:42:43;;;;;;;18;14;;;;;;;2.69;62.41602;962.7595;;;;
2019/04/12 04:45:08;;;;;;;18.3;13.7;;;;;;;2.76;62.69922;962.7794;;;;
2019/04/12 04:47:33;;;;;;;18.2;14.3;;;;;;;2.64;62.89648;962.8398;;;;
2019/04/12 04:50:10;;;;;;;19.4;14.7;;;;;;;2.62;62.81445;962.8582;;;;
2019/04/12 04:52:35;;;;;;;16.8;13.8;;;;;;;2.56;63.15723;962.8457;;;;
2019/04/12 04:55:00;;;;;;;20.4;14.9;;;;;;;2.67;63.15039;962.875;;;;
2019/04/12 04:57:25;;;;;;;19;14.7;;;;;;;2.47;63.29297;962.8611;;;;
2019/04/12 04:59:51;;;;;;;20;14.3;;;;;;;2.44;63.62891;962.9014;;;;
2019/04/12 05:02:16;;;;;;;19.5;14.8;;;;;;;2.47;63.51953;962.9416;;;;
2019/04/12 05:04:41;;;;;;;22.3;14.6;;;;;;;2.48;63.52051;962.9783;;;;
2019/04/12 05:07:07;;;;;;;20;14.8;;;;;;;2.51;63.70801;963.0137;;;;
2019/04/12 05:09:32;;;;;;;19.9;14.3;;;;;;;2.58;63.33105;963.0002;;;;
2019/04/12 05:11:57;;;;;;;21;14.6;;;;;;;2.6;63.29004;963.011;;;;
2019/04/12 05:14:23;;;;;;;19.9;14.4;;;;;;;2.51;63.77637;963.0264;;;;
2019/04/12 05:16:48;;;;;;;20.2;14.5;;;;;;;2.57;63.77246;963.0386;;;;
2019/04/12 05:19:14;;;;;;;20.9;15.3;;;;;;;2.58;63.36523;963.0633;;;;
2019/04/12 05:21:39;;;;;;;21.4;14.9;;;;;;;2.7;63.42969;963.011;;;;
2019/04/12 05:24:05;;;;;;;19.7;14.8;;;;;;;2.82;63.28809;963.0104;;;;
2019/04/12 05:26:30;;;;;;;18.1;14.3;;;;;;;2.76;62.96191;963.0781;;;;
2019/04/12 05:28:55;;;;;;;18.9;14.5;;;;;;;2.76;63.4375;963.0913;;;;
2019/04/12 05:31:20;;;;;;;18.8;14.5;;;;;;;2.75;63.49316;963.1677;;;;
2019/04/12 05:33:45;;;;;;;19;14.8;;;;;;;2.82;63.34473;963.111;;;;
2019/04/12 05:36:10;;;;;;;20.4;15;;;;;;;2.77;64.0293;963.157;;;;
2019/04/12 05:38:35;;;;;;;21.2;15.2;;;;;;;2.73;63.3877;963.0219;;;;
2019/04/12 05:41:00;;;;;;;20.3;14.8;;;;;;;2.88;63.05859;963.1273;;;;
2019/04/12 05:43:26;;;;;;;20.4;15.2;;;;;;;2.96;63.02344;963.1337;;;;
2019/04/12 05:46:14;;;;;;;19.9;15.5;;;;;;;3.02;63.3291;963.1367;;;;
2019/04/12 05:48:39;;;;;;;19.3;15.2;;;;;;;3.03;63.05762;963.132;;;;
2019/04/12 05:50:54;;;;;;;20.7;14.6;;;;;;;3.08;62.39355;963.1152;;;;
2019/04/12 05:53:19;;;;;;;21.2;15.2;;;;;;;3.01;63.12402;963.0574;;;;
2019/04/12 05:55:52;;;;;;;21.4;16;;;;;;;2.95;62.91992;963.0631;;;;
2019/04/12 05:58:33;;;;;;;21.4;16.1;;;;;;;2.84;64.13281;963.0884;;;;
2019/04/12 06:00:42;;;;;;;21.1;15.8;;;;;;;2.82;63.66211;963.1281;;;;
2019/04/12 06:02:59;;;;;;;22.2;16.1;;;;;;;2.82;63.94629;963.1368;;;;
2019/04/12 06:05:24;;;;;;;31.8;21.5;;;;;;;2.95;64.25098;963.1889;;;;
2019/04/12 06:07:50;;;;;;;57.1;39.3;;;;;;;2.89;64.69727;963.1599;;;;
2019/04/12 06:10:15;;;;;;;21.9;16.8;;;;;;;2.93;64.03125;963.1234;;;;
2019/04/12 06:12:41;;;;;;;19.8;15.3;;;;;;;2.88;64.1709;963.1739;;;;
2019/04/12 06:15:06;;;;;;;22.3;15.6;;;;;;;2.93;64.19043;963.1487;;;;
2019/04/12 06:17:31;;;;;;;22.4;16.2;;;;;;;3.01;64.82715;963.1252;;;;
2019/04/12 06:22:22;;;;;;;24.6;18.2;;;;;;;3.21;64.22168;963.1931;;;;
2019/04/12 06:25:09;;;;;;;37.4;25.4;;;;;;;3.11;63.83008;963.2019;;;;
2019/04/12 06:27:19;;;;;;;20.8;16.6;;;;;;;3.21;63.87891;963.185;;;;
2019/04/12 06:29:37;;;;;;;20.3;15.9;;;;;;;3.33;64.1123;963.2089;;;;
2019/04/12 06:32:02;;;;;;;22.1;16.4;;;;;;;3.29;62.7666;963.182;;;;
2019/04/12 06:34:27;;;;;;;26.7;17.4;;;;;;;3.24;63.64551;963.2283;;;;
2019/04/12 06:36:52;;;;;;;21.4;16.3;;;;;;;3.37;63.00586;963.2176;;;;
2019/04/12 06:39:18;;;;;;;23.4;16.2;;;;;;;3.36;63.12793;963.2228;;;;
2019/04/12 06:41:45;;;;;;;22.6;16.2;;;;;;;3.43;63.01367;963.2047;;;;
2019/04/12 06:44:09;;;;;;;22.1;17;;;;;;;3.46;63.56348;963.1429;;;;
2019/04/12 06:46:34;;;;;;;22.8;16.5;;;;;;;3.47;63.04297;963.1461;;;;
2019/04/12 06:48:59;;;;;;;25;17.1;;;;;;;3.47;62.90625;963.0742;;;;
2019/04/12 06:51:24;;;;;;;74;47.7;;;;;;;3.54;63.43945;963.1278;;;;
2019/04/12 06:53:49;;;;;;;25.7;18.3;;;;;;;3.64;63.3418;963.1868;;;;
2019/04/12 06:56:51;;;;;;;22.7;17;;;;;;;3.78;63.17871;963.1373;;;;
2019/04/12 06:58:39;;;;;;;24.2;17.9;;;;;;;3.88;62.81934;963.1662;;;;
2019/04/12 07:01:11;;;;;;;25;17.1;;;;;;;4.02;62.89551;963.1252;;;;
2019/04/12 07:06:09;;;;;;;22.1;17.4;;;;;;;4.29;66.97266;963.076;;;;
2019/04/12 07:08:34;;;;;;;37.9;26.6;;;;;;;4.36;61.60156;963.1163;;;;
2019/04/12 07:10:59;;;;;;;21.7;16.9;;;;;;;4.47;61.11426;963.1495;;;;
2019/04/12 07:13:26;;;;;;;22.8;16.8;;;;;;;4.49;60.74121;963.1096;;;;
2019/04/12 07:15:51;;;;;;;21.4;17.5;;;;;;;4.67;60.80176;963.072;;;;
2019/04/12 07:18:17;;;;;;;25;17.3;;;;;;;4.64;60.30664;963.1006;;;;
2019/04/12 07:20:42;;;;;;;21.9;17.6;;;;;;;4.73;60.63965;963.0919;;;;
2019/04/12 07:23:07;;;;;;;23.8;17.7;;;;;;;4.88;59.82617;963.0917;;;;
2019/04/12 07:25:33;;;;;;;24.5;18;;;;;;;4.91;60.12695;963.1144;;;;
2019/04/12 07:27:59;;;;;;;23.4;17.5;;;;;;;5.12;58.93457;963.0959;;;;
2019/04/12 07:30:24;;;;;;;21.4;17.1;;;;;;;5.28;58.75195;963.0602;;;;
2019/04/12 07:32:48;;;;;;;22.8;17.1;;;;;;;5.4;57.58008;963.1039;;;;
2019/04/12 07:35:13;;;;;;;22.6;17;;;;;;;5.36;57.16211;963.0818;;;;
2019/04/12 07:37:44;;;;;;;22.2;16.7;;;;;;;5.42;57.80957;963.1788;;;;
2019/04/12 07:40:12;;;;;;;23.6;17.4;;;;;;;5.2;58.08887;963.135;;;;
2019/04/12 07:42:36;;;;;;;24;17.7;;;;;;;5.29;58.34082;963.0549;;;;
2019/04/12 07:45:02;;;;;;;23;17.4;;;;;;;5.25;58.08496;963.1517;;;;
2019/04/12 07:47:28;;;;;;;21.7;17.5;;;;;;;5.44;58.78516;963.1082;;;;
2019/04/12 07:49:57;;;;;;;27.8;18.6;;;;;;;5.44;58.85352;963.1891;;;;
2019/04/12 07:52:26;;;;;;;24.2;17.8;;;;;;;5.46;58.35449;963.149;;;;
2019/04/12 07:57:20;;;;;;;21.5;16.5;;;;;;;5.68;57.57031;963.1246;;;;
2019/04/12 07:59:39;;;;;;;25.2;19.1;;;;;;;5.78;58.21387;963.1742;;;;
2019/04/12 08:05:53;;;;;;;24.1;17.8;;;;;;;6.01;56.94043;963.1365;;;;
2019/04/12 08:08:14;;;;;;;23.6;19;;;;;;;6.06;57.05078;963.1022;;;;
2019/04/12 08:10:39;;;;;;;24;18.5;;;;;;;6.16;56.7998;963.0881;;;;
2019/04/12 08:13:05;;;;;;;24.7;18.7;;;;;;;6.34;55.2998;963.1353;;;;
2019/04/12 08:15:31;;;;;;;24.4;18.9;;;;;;;6.34;55.90723;963.063;;;;
2019/04/12 08:17:55;;;;;;;28.1;19;;;;;;;6.3;55.52441;963.0244;;;;
2019/04/12 08:20:21;;;;;;;24.3;18.5;;;;;;;6.37;56.80469;963.1362;;;;
2019/04/12 08:22:47;;;;;;;28.1;19.7;;;;;;;6.55;56.34668;963.149;;;;
2019/04/12 08:25:13;;;;;;;25.4;20;;;;;;;6.59;56.08789;963.103;;;;
2019/04/12 08:27:37;;;;;;;28.6;20.1;;;;;;;6.7;54.99023;963.1556;;;;
2019/04/12 08:30:03;;;;;;;24.6;19.6;;;;;;;6.86;54.89648;963.0726;;;;
2019/04/12 08:32:27;;;;;;;51.3;38.2;;;;;;;6.94;55.41113;963.1454;;;;
2019/04/12 08:34:52;;;;;;;27.9;20.5;;;;;;;6.92;55.20313;963.1265;;;;
2019/04/12 08:37:17;;;;;;;25.2;19.5;;;;;;;7.11;53.94141;963.095;;;;
2019/04/12 08:39:43;;;;;;;29.8;21.6;;;;;;;7.21;53.49609;963.1442;;;;
2019/04/12 08:42:08;;;;;;;28.5;21.4;;;;;;;7.36;54.11133;963.1547;;;;
2019/04/12 08:44:33;;;;;;;26.7;21;;;;;;;7.16;53.86816;963.1024;;;;
2019/04/12 08:46:58;;;;;;;28.4;21.8;;;;;;;7.4;53.16309;963.1333;;;;
2019/04/12 08:49:23;;;;;;;29.5;21.1;;;;;;;7.58;53.96582;963.069;;;;
2019/04/12 08:51:48;;;;;;;147.6;110.4;;;;;;;7.73;52.77832;963.033;;;;
2019/04/12 08:54:24;;;;;;;29.9;21.6;;;;;;;7.68;52.95703;963.0503;;;;
2019/04/12 08:56:45;;;;;;;29.2;21.4;;;;;;;7.91;51.70703;962.9682;;;;
2019/04/12 08:59:11;;;;;;;26.7;21.5;;;;;;;8.13;51.69922;963.0349;;;;
2019/04/12 09:01:36;;;;;;;25.9;20.9;;;;;;;8.43;49.95117;963.0594;;;;
2019/04/12 09:04:01;;;;;;;28.2;21.8;;;;;;;8.58;50.75195;963.0183;;;;
2019/04/12 09:06:26;;;;;;;26.2;20.9;;;;;;;8.66;50.49609;963.0014;;;;
2019/04/12 09:11:16;;;;;;;27.4;21.6;;;;;;;9.14;51.63672;963.0442;;;;
2019/04/12 09:13:43;;;;;;;25.8;21.8;;;;;;;9.45;49.79297;963.0022;;;;
2019/04/12 09:16:08;;;;;;;27;21.3;;;;;;;9.7;47.60547;963.0258;;;;
2019/04/12 09:18:38;;;;;;;26.7;21;;;;;;;9.71;47.35254;962.9739;;;;
2019/04/12 09:23:34;;;;;;;30.1;23.2;;;;;;;9.37;47.75391;963.0366;;;;
2019/04/12 09:25:56;;;;;;;29.6;23.4;;;;;;;9.4;49.26758;963.0333;;;;
2019/04/12 09:28:14;;;;;;;28.8;22.7;;;;;;;9.26;49.10254;962.9625;;;;
2019/04/12 09:30:40;;;;;;;27.1;21.9;;;;;;;9.18;47.96191;962.9676;;;;
2019/04/12 09:33:09;;;;;;;29.9;22.4;;;;;;;9.16;48.88281;962.9189;;;;
2019/04/12 09:35:32;;;;;;;28.5;23.1;;;;;;;9.14;47.90039;962.9628;;;;
2019/04/12 09:37:57;;;;;;;27.9;22.5;;;;;;;9.22;48.04785;962.9548;;;;
2019/04/12 09:40:22;;;;;;;28.7;22.7;;;;;;;9.08;48.69043;962.9351;;;;
2019/04/12 09:42:47;;;;;;;28.4;22.6;;;;;;;9.12;47.81738;962.9739;;;;
2019/04/12 09:45:13;;;;;;;27.3;22.1;;;;;;;9.11;48.94629;962.9032;;;;
2019/04/12 09:47:38;;;;;;;28.5;22.7;;;;;;;9.26;48.09961;962.8436;;;;
2019/04/12 09:50:03;;;;;;;28.4;22.1;;;;;;;9.49;49.41699;962.8613;;;;
2019/04/12 09:52:28;;;;;;;32.1;22.2;;;;;;;9.87;48.69824;962.8455;;;;
2019/04/12 09:54:53;;;;;;;27.8;22.2;;;;;;;10.08;46.41016;962.8187;;;;
2019/04/12 09:57:21;;;;;;;28.8;21.9;;;;;;;10.28;46.9873;962.813;;;;
2019/04/12 09:59:44;;;;;;;27.8;21.9;;;;;;;10.4;46.61816;962.813;;;;
2019/04/12 10:02:09;;;;;;;28.2;22;;;;;;;10.41;45.52148;962.7905;;;;
2019/04/12 10:04:34;;;;;;;29.4;22.5;;;;;;;10.39;45.93457;962.8058;;;;
2019/04/12 10:06:59;;;;;;;31;22.6;;;;;;;10.3;46.83887;962.7985;;;;
2019/04/12 10:09:26;;;;;;;28.6;22.8;;;;;;;10.22;45.59375;962.7647;;;;
2019/04/12 10:13:45;;;;;;;27.2;23.1;;;;;;;10.57;45.58398;962.8318;;;;
2019/04/12 10:16:11;;;;;;;30.7;23.3;;;;;;;10.41;46.01855;962.7561;;;;
2019/04/12 10:18:36;;;;;;;27.9;22.8;;;;;;;10.65;44.79297;962.7296;;;;
2019/04/12 10:21:02;;;;;;;31.3;23.9;;;;;;;10.83;44.61523;962.6409;;;;
2019/04/12 10:23:27;;;;;;;30.6;23.3;;;;;;;11.07;46.64453;962.69;;;;
2019/04/12 10:25:52;;;;;;;31.4;23.8;;;;;;;11.28;44.31445;962.6406;;;;
2019/04/12 10:28:17;;;;;;;28.4;22.9;;;;;;;11.5;44.56836;962.5853;;;;
2019/04/12 10:30:42;;;;;;;28;23.3;;;;;;;11.64;43.30664;962.6671;;;;
2019/04/12 10:33:07;;;;;;;30.4;23.5;;;;;;;11.66;43.04199;962.6857;;;;
2019/04/12 10:35:32;;;;;;;28.4;23.3;;;;;;;11.62;43.38672;962.6519;;;;
2019/04/12 10:37:58;;;;;;;31.4;23.9;;;;;;;11.85;42.63184;962.582;;;;
2019/04/12 10:40:23;;;;;;;29.3;23.5;;;;;;;11.55;41.84961;962.5524;;;;
2019/04/12 10:42:48;;;;;;;30.4;23.6;;;;;;;11.4;44.73145;962.5623;;;;
2019/04/12 10:45:22;;;;;;;31.1;24.1;;;;;;;11.67;43.63477;962.5726;;;;
2019/04/12 10:47:48;;;;;;;27.8;23.1;;;;;;;11.93;41.57227;962.4526;;;;
2019/04/12 10:57:11;;;;;;;28.4;23.7;;;;;;;11.98;42.65625;962.4088;;;;
2019/04/12 10:59:36;;;;;;;32;23.7;;;;;;;12.08;42.78223;962.4355;;;;
2019/04/12 11:02:01;;;;;;;29.8;24;;;;;;;12.3;42.6416;962.4208;;;;
2019/04/12 11:04:37;;;;;;;29.2;23.4;;;;;;;12.66;42.29297;962.4634;;;;
2019/04/12 11:07:02;;;;;;;28.6;23.3;;;;;;;13.09;41.00781;962.4793;;;;
2019/04/12 11:09:27;;;;;;;28.1;23.4;;;;;;;13.34;39.92578;962.4188;;;;
2019/04/12 11:11:52;;;;;;;27.5;23.7;;;;;;;13.39;41.01367;962.3951;;;;
2019/04/12 11:14:17;;;;;;;29.4;22.9;;;;;;;13.31;40.2832;962.3968;;;;
2019/04/12 11:16:42;;;;;;;28.3;23.6;;;;;;;13.46;39.73828;962.3996;;;;
2019/04/12 11:19:07;;;;;;;32.2;23.1;;;;;;;13.58;41.49805;962.4309;;;;
2019/04/12 11:21:33;;;;;;;27.8;23.4;;;;;;;13.96;40.57715;962.3311;;;;
2019/04/12 11:23:58;;;;;;;27.2;23.8;;;;;;;13.93;37.67188;962.3144;;;;
2019/04/12 11:26:23;;;;;;;30.3;23.8;;;;;;;13.89;38.91504;962.3834;;;;
2019/04/12 11:28:50;;;;;;;27.5;23.4;;;;;;;13.7;37.66309;962.3215;;;;
2019/04/12 11:31:13;;;;;;;29.2;24.5;;;;;;;13.9;39.0791;962.2924;;;;
2019/04/12 11:33:38;;;;;;;27.1;23.8;;;;;;;13.84;38.75977;962.2736;;;;
2019/04/12 11:36:03;;;;;;;31.6;24.5;;;;;;;13.43;37.02246;962.3084;;;;
2019/04/12 11:38:29;;;;;;;28.3;23.2;;;;;;;13.83;40.29688;962.2885;;;;
2019/04/12 11:40:54;;;;;;;28.2;24.2;;;;;;;14.37;38.43262;962.3053;;;;
2019/04/12 11:43:19;;;;;;;29.5;25.3;;;;;;;14.88;38.05762;962.3464;;;;
2019/04/12 11:45:44;;;;;;;28.9;24.1;;;;;;;15.1;35.89063;962.2827;;;;
2019/04/12 11:48:09;;;;;;;28;23.7;;;;;;;15.16;34.74902;962.2536;;;;
2019/04/12 11:50:34;;;;;;;28.4;24.5;;;;;;;14.7;36.37109;962.3176;;;;
2019/04/12 11:52:59;;;;;;;27.9;24.2;;;;;;;14.54;35.75098;962.373;;;;
2019/04/12 11:55:25;;;;;;;29;25.2;;;;;;;14.51;35.8418;962.274;;;;
2019/04/12 11:57:50;;;;;;;30.7;24.6;;;;;;;14.78;36.81055;962.2817;;;;
2019/04/12 12:00:20;;;;;;;30.4;24.5;;;;;;;14.79;35.11816;962.3314;;;;
2019/04/12 12:02:49;;;;;;;29.4;24.9;;;;;;;14.73;35.74316;962.3533;;;;
2019/04/12 12:07:45;;;;;;;29.5;23.8;;;;;;;14.36;36.05078;962.4439;;;;
2019/04/12 12:19:11;;;;;;;31.5;26;;;;;;;13.56;37.06836;962.4673;;;;
2019/04/12 12:21:36;;;;;;;34;26.1;;;;;;;13.31;36.81445;962.4562;;;;
2019/04/12 12:24:01;;;;;;;33.8;26.6;;;;;;;13.16;37.83789;962.4967;;;;
2019/04/12 12:26:26;;;;;;;32.9;26.9;;;;;;;13.11;38.25293;962.5111;;;;
2019/04/12 12:28:52;;;;;;;31.8;26.1;;;;;;;13.01;37.18457;962.4719;;;;
2019/04/12 12:31:26;;;;;;;32.8;26.9;;;;;;;12.84;38.13574;962.4756;;;;
2019/04/12 12:33:51;;;;;;;32.8;26.9;;;;;;;12.41;38.75879;962.4385;;;;
2019/04/12 12:36:16;;;;;;;32;25.3;;;;;;;12.34;39.5791;962.4677;;;;
2019/04/12 12:38:41;;;;;;;31.2;26.5;;;;;;;12.26;39.75684;962.4647;;;;
2019/04/12 12:41:06;;;;;;;35.1;26.1;;;;;;;12.3;40.05176;962.4594;;;;
2019/04/12 12:43:31;;;;;;;31.2;25.9;;;;;;;12.55;38.56348;962.4684;;;;
2019/04/12 12:45:56;;;;;;;35.1;27.9;;;;;;;12.65;38.92188;962.4812;;;;
2019/04/12 12:48:21;;;;;;;39.8;31.5;;;;;;;12.68;38.41309;962.4222;;;;
2019/04/12 12:50:51;;;;;;;33.7;27.1;;;;;;;12.83;38.34375;962.4894;;;;
2019/04/12 12:53:12;;;;;;;38.1;30.7;;;;;;;12.99;38.125;962.5044;;;;
2019/04/12 12:55:37;;;;;;;32.8;26.4;;;;;;;13.18;38.00195;962.4771;;;;
2019/04/12 12:58:02;;;;;;;33.3;26.6;;;;;;;13.09;37.91309;962.5258;;;;
2019/04/12 13:00:27;;;;;;;31.4;25.9;;;;;;;13.28;37.14941;962.4777;;;;
2019/04/12 13:02:52;;;;;;;33.6;26.5;;;;;;;13.47;35.74512;962.4017;;;;
2019/04/12 13:05:18;;;;;;;32.7;25.4;;;;;;;13.18;35.83691;962.4297;;;;
2019/04/12 13:07:44;;;;;;;32.8;26.3;;;;;;;13.11;37.29785;962.4508;;;;
2019/04/12 13:10:09;;;;;;;35.9;27;;;;;;;12.87;38.01074;962.4927;;;;
2019/04/12 13:12:34;;;;;;;31.3;25.7;;;;;;;13.11;37.99609;962.4558;;;;
2019/04/12 13:14:59;;;;;;;31.7;26.2;;;;;;;13.29;36.61426;962.3778;;;;
2019/04/12 13:17:27;;;;;;;33.5;25.7;;;;;;;13.43;35.8457;962.4539;;;;
2019/04/12 13:19:52;;;;;;;34.2;27.5;;;;;;;13.28;37.92871;962.4559;;;;
2019/04/12 13:22:17;;;;;;;35;29;;;;;;;13.17;37.64063;962.4484;;;;
2019/04/12 13:24:42;;;;;;;35.6;26.7;;;;;;;12.83;36.04199;962.4419;;;;
2019/04/12 13:27:08;;;;;;;33.8;26.4;;;;;;;12.88;35.88281;962.4275;;;;
2019/04/12 13:29:33;;;;;;;34.8;27.5;;;;;;;12.91;36.60645;962.3903;;;;
2019/04/12 13:32:16;;;;;;;31.8;25.3;;;;;;;13.08;36.87598;962.3951;;;;
2019/04/12 13:36:56;;;;;;;35.4;27.2;;;;;;;13.21;35.71289;962.3697;;;;
2019/04/12 13:39:26;;;;;;;33;26.7;;;;;;;13.23;34.98047;962.355;;;;
2019/04/12 13:41:44;;;;;;;34.8;27.1;;;;;;;12.98;35.90234;962.3808;;;;
2019/04/12 13:44:09;;;;;;;33.3;26.9;;;;;;;13;36.19434;962.3236;;;;
2019/04/12 13:46:34;;;;;;;32.7;25.6;;;;;;;12.89;36.13965;962.315;;;;
2019/04/12 13:49:00;;;;;;;35.4;27;;;;;;;12.89;35.86035;962.3664;;;;
2019/04/12 13:51:25;;;;;;;35.6;27.1;;;;;;;12.97;37.2041;962.353;;;;
2019/04/12 13:53:50;;;;;;;34.5;27.6;;;;;;;12.95;36.83105;962.3251;;;;
2019/04/12 13:56:15;;;;;;;33.1;27.3;;;;;;;12.97;36.37891;962.3698;;;;
2019/04/12 13:58:40;;;;;;;35.6;28.5;;;;;;;12.83;36.72754;962.3134;;;;
2019/04/12 14:01:11;;;;;;;31.9;26.9;;;;;;;12.97;37.28613;962.348;;;;
2019/04/12 14:03:36;;;;;;;34.7;29.3;;;;;;;12.76;36.33789;962.3446;;;;
2019/04/12 14:06:01;;;;;;;44.4;28.6;;;;;;;12.45;36.17188;962.28;;;;
2019/04/12 14:08:26;;;;;;;35.4;27.9;;;;;;;12.27;35.65723;962.228;;;;
2019/04/12 14:10:51;;;;;;;37.2;29.1;;;;;;;11.98;37.13184;962.2589;;;;
2019/04/12 14:13:16;;;;;;;36.8;27.8;;;;;;;12;36.05371;962.1801;;;;
2019/04/12 14:15:42;;;;;;;37.8;28.1;;;;;;;11.92;37.12598;962.2274;;;;
2019/04/12 14:18:07;;;;;;;35.2;27.6;;;;;;;11.68;36.32813;962.183;;;;
2019/04/12 14:20:32;;;;;;;34.9;27.6;;;;;;;11.58;36.73828;962.1514;;;;
2019/04/12 14:22:57;;;;;;;34.9;28.1;;;;;;;11.43;38.3252;962.1741;;;;
2019/04/12 14:25:26;;;;;;;34;27.2;;;;;;;11.56;38.69531;962.2142;;;;
2019/04/12 14:27:51;;;;;;;36.4;27.7;;;;;;;11.43;38.47656;962.1989;;;;
2019/04/12 14:32:43;;;;;;;34.7;27.1;;;;;;;11.52;37.24316;962.2229;;;;
2019/04/12 14:35:26;;;;;;;35.4;28;;;;;;;11.48;37.74902;962.2241;;;;
2019/04/12 14:37:37;;;;;;;33.1;27;;;;;;;11.44;37.44531;962.2661;;;;
2019/04/12 14:39:57;;;;;;;34.4;27.6;;;;;;;11.24;36.9873;962.2213;;;;
2019/04/12 14:42:22;;;;;;;39.6;29.9;;;;;;;11.02;38.79785;962.2852;;;;
2019/04/12 14:47:22;;;;;;;34;26.4;;;;;;;10.81;39.72852;962.3738;;;;
2019/04/12 14:49:37;;;;;;;29.5;24.3;;;;;;;10.63;38.9834;962.3256;;;;
2019/04/12 14:52:02;;;;;;;36.4;26;;;;;;;10.62;40.42871;962.3057;;;;